Time;durP1;ratioP1;P1;durP2;ratioP2;P2;SDS_P1;SDS_P2;PMS_P1;PMS_P2;Temp;Humidity;BMP_temperature;BMP_pressure;BME280_temperature;BME280_humidity;BME280_pressure;Samples;Min_cycle;Max_cycle;Signal;HPM_P1;HPM_P2
2022/02/06 00:00:09;;;;;;;1.60;1.30;;;7.40;98.20;;;;;;5037142;28;21188;-73
2022/02/06 00:02:39;;;;;;;1.57;1.20;;;7.40;98.20;;;;;;5052720;28;20477;-73
2022/02/06 00:05:06;;;;;;;1.60;1.30;;;7.30;98.20;;;;;;5054528;23;20471;-70
2022/02/06 00:07:33;;;;;;;1.60;1.20;;;7.30;98.20;;;;;;5025289;28;20486;-70
2022/02/06 00:10:00;;;;;;;1.60;1.30;;;7.20;98.20;;;;;;5028102;28;20467;-71
2022/02/06 00:12:27;;;;;;;1.60;1.33;;;7.20;98.20;;;;;;5028343;28;20489;-71
2022/02/06 00:14:54;;;;;;;1.60;1.20;;;7.10;98.20;;;;;;5027258;28;20866;-72
2022/02/06 00:17:22;;;;;;;1.60;1.30;;;7.10;98.20;;;;;;5025074;28;20482;-72
2022/02/06 00:19:49;;;;;;;1.70;1.60;;;7.10;98.20;;;;;;5023435;28;20498;-71
2022/02/06 00:22:28;;;;;;;1.60;1.20;;;7.00;98.20;;;;;;5015078;28;20630;-72
2022/02/06 00:25:09;;;;;;;1.57;1.20;;;7.00;98.20;;;;;;5024202;28;20466;-71
2022/02/06 00:27:46;;;;;;;1.60;1.30;;;7.00;98.20;;;;;;5029223;28;21033;-72
2022/02/06 00:30:22;;;;;;;1.60;1.30;;;7.00;98.20;;;;;;5026395;28;20461;-72
2022/02/06 00:32:55;;;;;;;1.60;1.30;;;7.00;98.20;;;;;;5024366;28;21034;-72
2022/02/06 00:35:31;;;;;;;1.60;1.30;;;7.00;98.20;;;;;;5024053;28;20553;-72
2022/02/06 00:38:12;;;;;;;1.60;1.30;;;7.00;98.20;;;;;;5020086;28;20518;-72
2022/02/06 00:41:07;;;;;;;1.60;1.23;;;7.10;98.20;;;;;;5025899;28;20467;-72
2022/02/06 00:43:33;;;;;;;1.60;1.43;;;7.10;98.20;;;;;;5012469;28;20582;-72
2022/02/06 00:45:59;;;;;;;1.57;1.30;;;7.10;98.20;;;;;;5015520;28;20902;-72
2022/02/06 00:48:29;;;;;;;1.60;1.30;;;7.10;98.20;;;;;;5029139;28;20450;-73
2022/02/06 00:51:05;;;;;;;1.60;1.20;;;7.10;98.20;;;;;;5016079;28;20597;-72
2022/02/06 00:53:31;;;;;;;1.60;1.30;;;7.20;98.20;;;;;;5042171;28;20473;-72
2022/02/06 00:55:59;;;;;;;3.70;3.50;;;7.20;98.20;;;;;;5017130;28;20482;-73
2022/02/06 00:58:26;;;;;;;1.60;1.40;;;7.20;98.20;;;;;;5038381;28;20582;-72
2022/02/06 01:00:53;;;;;;;1.60;1.30;;;7.20;98.20;;;;;;5016652;28;20486;-73
2022/02/06 01:03:19;;;;;;;1.60;1.20;;;7.20;98.20;;;;;;5043213;28;20464;-73
2022/02/06 01:05:47;;;;;;;1.60;1.40;;;7.20;98.20;;;;;;5026225;28;20491;-72
2022/02/06 01:08:14;;;;;;;1.60;1.30;;;7.30;98.20;;;;;;5015855;28;20472;-73
2022/02/06 01:10:41;;;;;;;1.60;1.30;;;7.30;98.20;;;;;;5025989;28;20467;-73
2022/02/06 01:13:22;;;;;;;1.60;1.20;;;7.30;98.20;;;;;;5032014;28;20482;-73
2022/02/06 01:15:55;;;;;;;1.60;1.30;;;7.30;98.20;;;;;;5016657;28;20865;-73
2022/02/06 01:18:28;;;;;;;1.60;1.30;;;7.40;98.20;;;;;;5028941;28;20494;-73
2022/02/06 01:21:02;;;;;;;1.60;1.30;;;7.40;98.20;;;;;;5015016;28;20459;-73
2022/02/06 01:23:34;;;;;;;1.60;1.30;;;7.40;98.20;;;;;;5025227;28;21110;-73
2022/02/06 01:26:05;;;;;;;1.60;1.30;;;7.50;98.20;;;;;;5018599;28;20549;-73
2022/02/06 01:28:37;;;;;;;1.60;1.30;;;7.50;98.20;;;;;;5026960;28;20485;-72
2022/02/06 01:31:16;;;;;;;1.60;1.30;;;7.50;98.20;;;;;;5019335;28;20490;-73
2022/02/06 01:33:49;;;;;;;1.60;1.30;;;7.60;98.20;;;;;;5029257;28;20471;-73
2022/02/06 01:36:26;;;;;;;1.60;1.30;;;7.60;98.20;;;;;;5025856;28;20489;-73
2022/02/06 01:39:12;;;;;;;1.60;1.40;;;7.60;98.20;;;;;;5038145;28;20585;-73
2022/02/06 01:41:42;;;;;;;1.60;1.40;;;7.60;98.20;;;;;;5028779;28;21004;-72
2022/02/06 01:44:25;;;;;;;1.60;1.40;;;7.60;98.20;;;;;;5024257;28;20495;-73
2022/02/06 01:57:09;;;;;;;1.60;1.27;;;7.60;98.20;;;;;;5025667;28;20979;-74
2022/02/06 02:01:10;;;;;;;1.60;1.30;;;7.70;98.20;;;;;;5028220;28;21203;-73
2022/02/06 02:03:45;;;;;;;1.60;1.30;;;7.80;98.20;;;;;;5016425;28;20978;-73
2022/02/06 02:09:26;;;;;;;1.60;1.40;;;7.80;98.20;;;;;;5036427;28;20446;-73
2022/02/06 02:12:12;;;;;;;1.60;1.33;;;7.80;98.20;;;;;;5018970;28;20588;-73
2022/02/06 02:23:27;;;;;;;1.60;1.47;;;7.80;98.20;;;;;;5002171;28;20485;-72
2022/02/06 02:45:26;;;;;;;1.60;1.30;;;7.80;98.20;;;;;;5024382;28;20473;-71
2022/02/06 02:48:01;;;;;;;1.60;1.20;;;7.80;98.20;;;;;;5025707;28;20853;-71
2022/02/06 02:50:30;;;;;;;1.60;1.20;;;7.80;98.20;;;;;;5022681;28;20869;-71
2022/02/06 02:53:07;;;;;;;1.60;1.20;;;7.80;98.20;;;;;;5027690;28;20565;-71
2022/02/06 02:58:30;;;;;;;1.60;1.20;;;7.80;98.20;;;;;;5016377;28;20479;-71
2022/02/06 03:01:05;;;;;;;1.60;1.20;;;7.80;98.20;;;;;;5018179;28;20459;-71
2022/02/06 03:03:34;;;;;;;1.60;1.23;;;7.80;98.20;;;;;;5036311;28;20923;-71
2022/02/06 03:06:03;;;;;;;1.60;1.30;;;7.80;98.20;;;;;;5020097;28;20490;-71
2022/02/06 03:08:31;;;;;;;1.60;1.30;;;7.80;98.20;;;;;;5042031;28;20840;-71
2022/02/06 03:11:03;;;;;;;1.60;1.20;;;7.80;98.20;;;;;;5013158;28;20830;-72
2022/02/06 03:13:37;;;;;;;1.60;1.30;;;7.90;98.20;;;;;;5022861;28;20468;-71
2022/02/06 03:16:17;;;;;;;1.60;1.40;;;7.80;98.20;;;;;;5015604;28;20537;-71
2022/02/06 03:18:48;;;;;;;1.60;1.20;;;7.90;98.20;;;;;;5038087;28;20463;-71
2022/02/06 03:21:19;;;;;;;1.60;1.30;;;7.90;98.20;;;;;;5019421;28;20494;-71
2022/02/06 03:23:50;;;;;;;1.60;1.30;;;7.80;98.20;;;;;;5034127;28;20467;-71
2022/02/06 03:26:20;;;;;;;1.60;1.30;;;7.80;98.20;;;;;;5019559;28;20775;-71
2022/02/06 03:28:47;;;;;;;2.37;1.97;;;7.80;98.20;;;;;;5037298;28;20463;-71
2022/02/06 03:31:14;;;;;;;1.60;1.30;;;7.80;98.20;;;;;;5020172;28;20731;-71
2022/02/06 03:33:41;;;;;;;1.60;1.40;;;7.80;98.20;;;;;;5027758;28;20892;-70
2022/02/06 03:36:09;;;;;;;1.60;1.20;;;7.70;98.20;;;;;;5019457;28;20474;-70
2022/02/06 03:38:35;;;;;;;1.60;1.20;;;7.70;98.20;;;;;;5035565;28;20973;-71
2022/02/06 03:41:06;;;;;;;1.60;1.20;;;7.70;98.20;;;;;;5016965;28;20487;-71
2022/02/06 03:43:41;;;;;;;1.60;1.30;;;7.70;98.20;;;;;;5024544;28;20578;-71
2022/02/06 03:46:12;;;;;;;1.60;1.37;;;7.70;98.20;;;;;;5017556;28;20486;-71
2022/02/06 03:48:47;;;;;;;1.57;1.20;;;7.60;98.20;;;;;;5027133;28;20463;-71
2022/02/06 03:51:20;;;;;;;1.60;1.30;;;7.60;98.20;;;;;;5020349;28;20474;-71
2022/02/06 03:53:49;;;;;;;1.60;1.20;;;7.60;98.20;;;;;;5037840;28;20451;-71
2022/02/06 03:56:16;;;;;;;1.60;1.30;;;7.60;98.20;;;;;;5020390;28;20482;-70
2022/02/06 03:58:44;;;;;;;1.60;1.30;;;7.60;98.20;;;;;;5038692;28;20471;-71
2022/02/06 04:01:11;;;;;;;1.60;1.30;;;7.60;98.20;;;;;;5020120;28;20489;-72
2022/02/06 04:03:37;;;;;;;3.40;2.10;;;7.60;98.20;;;;;;5036958;28;20485;-71
2022/02/06 04:06:04;;;;;;;1.60;1.30;;;7.50;98.20;;;;;;5020485;28;20861;-70
2022/02/06 04:08:36;;;;;;;1.60;1.20;;;7.50;98.20;;;;;;5039863;28;20467;-71
2022/02/06 04:11:06;;;;;;;2.00;1.80;;;7.50;98.20;;;;;;5018275;28;20463;-70
2022/02/06 04:13:36;;;;;;;1.60;1.27;;;7.50;98.20;;;;;;5033181;28;20489;-70
2022/02/06 04:16:12;;;;;;;1.60;1.30;;;7.50;98.20;;;;;;5016410;28;20479;-71
2022/02/06 04:18:49;;;;;;;1.60;1.20;;;7.50;98.20;;;;;;5026590;28;20470;-71
2022/02/06 04:21:15;;;;;;;1.60;1.40;;;7.50;98.20;;;;;;5020965;28;20879;-71
2022/02/06 04:23:42;;;;;;;1.60;1.40;;;7.50;98.20;;;;;;5036237;28;20459;-70
2022/02/06 04:26:09;;;;;;;1.60;1.33;;;7.50;98.20;;;;;;5017648;28;21174;-71
2022/02/06 04:28:36;;;;;;;1.60;1.20;;;7.50;98.20;;;;;;5028849;28;20834;-71
2022/02/06 04:31:04;;;;;;;1.60;1.30;;;7.50;98.20;;;;;;5018596;28;20558;-71
2022/02/06 04:33:31;;;;;;;1.60;1.20;;;7.50;98.20;;;;;;5038495;28;20525;-71
2022/02/06 04:36:00;;;;;;;1.60;1.30;;;7.50;98.20;;;;;;5018578;28;20493;-71
2022/02/06 04:41:25;;;;;;;1.60;1.23;;;7.50;98.20;;;;;;5017040;28;20536;-71
2022/02/06 04:44:35;;;;;;;1.60;1.20;;;7.50;98.20;;;;;;5034655;28;20465;-71
2022/02/06 04:50:30;;;;;;;1.60;1.30;;;7.60;98.20;;;;;;5024412;28;21112;-70
2022/02/06 04:53:31;;;;;;;1.60;1.30;;;7.60;98.20;;;;;;5029523;28;20484;-71
2022/02/06 05:15:38;;;;;;;1.57;1.20;;;7.60;98.20;;;;;;5024380;28;21011;-71
2022/02/06 05:18:26;;;;;;;1.60;1.20;;;7.60;98.20;;;;;;5028706;28;21021;-71
2022/02/06 05:26:50;;;;;;;1.60;1.30;;;7.60;98.20;;;;;;4997636;28;20481;-71
2022/02/06 05:29:27;;;;;;;1.60;1.30;;;7.60;98.20;;;;;;5034823;28;20558;-71
2022/02/06 05:32:11;;;;;;;1.60;1.30;;;7.60;98.20;;;;;;5021379;28;20491;-72
2022/02/06 05:34:38;;;;;;;1.60;1.20;;;7.60;98.20;;;;;;5027895;28;20467;-72
2022/02/06 05:37:06;;;;;;;1.60;1.20;;;7.60;98.20;;;;;;5033071;28;20486;-72
2022/02/06 05:39:33;;;;;;;1.60;1.30;;;7.60;98.20;;;;;;5034707;28;20536;-72
2022/02/06 05:41:59;;;;;;;1.57;1.20;;;7.60;98.20;;;;;;5030903;28;20478;-71
2022/02/06 05:44:26;;;;;;;1.60;1.20;;;7.70;98.20;;;;;;5033380;28;20494;-71
2022/02/06 05:46:53;;;;;;;1.60;1.30;;;7.70;98.20;;;;;;5022633;28;20497;-72
2022/02/06 05:49:20;;;;;;;1.60;1.20;;;7.70;98.20;;;;;;5028806;28;20467;-72
2022/02/06 05:51:48;;;;;;;1.60;1.27;;;7.70;98.20;;;;;;5027984;28;20637;-71
2022/02/06 05:54:16;;;;;;;1.60;1.40;;;7.70;98.20;;;;;;5037646;28;20469;-71
2022/02/06 05:56:43;;;;;;;2.63;2.43;;;7.70;98.20;;;;;;5025480;28;20493;-71
2022/02/06 05:59:10;;;;;;;1.60;1.20;;;7.70;98.20;;;;;;5036792;28;20470;-71
2022/02/06 06:01:36;;;;;;;1.60;1.20;;;7.70;98.20;;;;;;5019557;28;20490;-71
2022/02/06 06:04:03;;;;;;;1.60;1.20;;;7.70;98.20;;;;;;5024456;28;20964;-71
2022/02/06 06:06:31;;;;;;;1.60;1.20;;;7.70;98.20;;;;;;5024011;28;21006;-72
2022/02/06 06:08:58;;;;;;;1.60;1.30;;;7.70;98.20;;;;;;5035061;28;20924;-71
2022/02/06 06:11:27;;;;;;;1.60;1.20;;;7.70;98.20;;;;;;5026302;28;20482;-71
2022/02/06 06:13:53;;;;;;;1.60;1.20;;;7.70;98.20;;;;;;5037453;28;20490;-72
2022/02/06 06:16:20;;;;;;;1.60;1.20;;;7.70;98.20;;;;;;5021182;28;20505;-72
2022/02/06 06:18:47;;;;;;;1.60;1.30;;;7.80;98.20;;;;;;5031539;28;20459;-72
2022/02/06 06:21:14;;;;;;;1.60;1.30;;;7.80;98.20;;;;;;5023325;28;20531;-72
2022/02/06 06:23:43;;;;;;;1.60;1.20;;;7.70;98.20;;;;;;5028769;28;20468;-72
2022/02/06 06:26:15;;;;;;;1.60;1.20;;;7.80;98.20;;;;;;5019280;28;20497;-72
2022/02/06 06:28:43;;;;;;;1.60;1.40;;;7.70;98.20;;;;;;5039737;28;20487;-72
2022/02/06 06:31:10;;;;;;;1.60;1.30;;;7.70;98.20;;;;;;5022842;28;20856;-72
2022/02/06 06:33:36;;;;;;;1.60;1.20;;;7.70;98.20;;;;;;5028385;28;20463;-72
2022/02/06 06:36:04;;;;;;;1.60;1.30;;;7.70;98.20;;;;;;5021605;28;20487;-72
2022/02/06 06:38:32;;;;;;;1.60;1.20;;;7.70;98.20;;;;;;5040627;28;20478;-72
2022/02/06 06:40:59;;;;;;;1.60;1.33;;;7.70;98.20;;;;;;5019225;28;20542;-72
2022/02/06 06:43:26;;;;;;;1.60;1.30;;;7.70;98.20;;;;;;5028154;28;20478;-72
2022/02/06 06:45:54;;;;;;;1.60;1.30;;;7.70;98.20;;;;;;5015354;28;21113;-73
2022/02/06 06:48:21;;;;;;;1.60;1.20;;;7.70;98.20;;;;;;5035586;28;20459;-72
2022/02/06 06:50:48;;;;;;;1.60;1.20;;;7.70;98.20;;;;;;5025810;28;20462;-72
2022/02/06 06:53:16;;;;;;;1.60;1.30;;;7.70;98.20;;;;;;5043148;28;20979;-72
2022/02/06 06:55:45;;;;;;;1.60;1.20;;;7.70;98.20;;;;;;5027758;28;20487;-72
2022/02/06 06:58:16;;;;;;;1.60;1.20;;;7.80;98.20;;;;;;5036464;28;20863;-72
2022/02/06 07:00:55;;;;;;;1.60;1.30;;;7.80;98.20;;;;;;5024610;28;20548;-72
2022/02/06 07:03:23;;;;;;;1.60;1.17;;;7.80;98.20;;;;;;5016539;28;20541;-72
2022/02/06 07:05:50;;;;;;;1.60;1.30;;;7.80;98.20;;;;;;5017545;28;20570;-72
2022/02/06 07:08:17;;;;;;;2.30;2.10;;;7.80;98.20;;;;;;5041666;28;20456;-72
2022/02/06 07:10:44;;;;;;;1.60;1.20;;;7.80;98.20;;;;;;5027898;28;20470;-72
2022/02/06 07:13:13;;;;;;;1.60;1.40;;;7.80;98.20;;;;;;5021664;28;21030;-72
2022/02/06 07:15:40;;;;;;;1.60;1.30;;;7.80;98.20;;;;;;5025794;28;21060;-72
2022/02/06 07:18:06;;;;;;;1.60;1.20;;;7.80;98.20;;;;;;5020808;28;20478;-72
2022/02/06 07:20:36;;;;;;;1.60;1.30;;;7.80;98.20;;;;;;5025536;28;20876;-72
2022/02/06 07:23:04;;;;;;;1.60;1.37;;;7.80;98.20;;;;;;5017305;28;20498;-70
2022/02/06 07:25:31;;;;;;;1.60;1.23;;;7.80;98.20;;;;;;5027714;28;20835;-71
2022/02/06 07:27:57;;;;;;;1.60;1.30;;;7.80;98.20;;;;;;5026143;28;21104;-72
2022/02/06 07:30:24;;;;;;;1.60;1.23;;;7.80;98.20;;;;;;5027243;28;20455;-72
2022/02/06 07:32:51;;;;;;;1.60;1.30;;;7.80;98.20;;;;;;5033263;28;20482;-71
2022/02/06 07:35:18;;;;;;;1.60;1.23;;;7.80;98.20;;;;;;5024512;28;20487;-72
2022/02/06 07:37:49;;;;;;;1.60;1.20;;;7.80;98.20;;;;;;5032420;28;20486;-71
2022/02/06 07:40:16;;;;;;;1.60;1.30;;;7.80;98.20;;;;;;5027188;28;20491;-71
2022/02/06 07:42:43;;;;;;;1.60;1.30;;;7.80;98.20;;;;;;5032413;28;20483;-71
2022/02/06 07:45:12;;;;;;;1.60;1.20;;;7.80;98.20;;;;;;5024089;28;20459;-71
2022/02/06 07:47:42;;;;;;;1.60;1.20;;;7.80;98.20;;;;;;5032096;28;20528;-71
2022/02/06 07:50:10;;;;;;;1.60;1.27;;;7.80;98.20;;;;;;5027202;28;20467;-71
2022/02/06 07:52:37;;;;;;;1.60;1.20;;;7.80;98.20;;;;;;5033879;28;20877;-71
2022/02/06 07:55:07;;;;;;;1.60;1.30;;;7.80;98.20;;;;;;5028004;28;20477;-71
2022/02/06 07:57:34;;;;;;;1.57;1.20;;;7.80;98.20;;;;;;5021059;28;20490;-71
2022/02/06 08:00:02;;;;;;;1.60;1.20;;;7.80;98.20;;;;;;5024382;28;20594;-72
2022/02/06 08:02:29;;;;;;;1.60;1.20;;;7.80;98.20;;;;;;5030971;28;20478;-71
2022/02/06 08:04:57;;;;;;;1.57;1.20;;;7.80;98.20;;;;;;5026559;28;20498;-71
2022/02/06 08:07:24;;;;;;;1.60;1.30;;;7.80;98.20;;;;;;5024237;28;20473;-71
2022/02/06 08:09:54;;;;;;;1.60;1.23;;;7.80;98.20;;;;;;5027559;28;20479;-71
2022/02/06 08:12:28;;;;;;;1.60;1.10;;;7.80;98.20;;;;;;5027395;28;21978;-71
2022/02/06 08:14:59;;;;;;;1.63;1.40;;;7.80;98.20;;;;;;5025295;28;20518;-72
2022/02/06 08:17:28;;;;;;;1.60;1.20;;;7.80;98.20;;;;;;5026861;28;20897;-72
2022/02/06 08:19:56;;;;;;;1.60;1.37;;;7.80;98.20;;;;;;5027017;28;20459;-71
2022/02/06 08:22:24;;;;;;;1.60;1.30;;;7.80;98.20;;;;;;5032551;28;20486;-72
2022/02/06 08:24:51;;;;;;;1.60;1.30;;;7.80;98.20;;;;;;5028471;28;20459;-71
2022/02/06 08:27:19;;;;;;;1.60;1.23;;;7.90;98.20;;;;;;5029747;28;20500;-72
2022/02/06 08:29:48;;;;;;;1.60;1.20;;;7.90;98.20;;;;;;5031012;28;20559;-71
2022/02/06 08:32:15;;;;;;;1.60;1.20;;;7.90;98.20;;;;;;5022186;28;20483;-71
2022/02/06 08:34:42;;;;;;;1.57;1.20;;;7.90;98.20;;;;;;5031005;28;20463;-71
2022/02/06 08:37:09;;;;;;;1.60;1.20;;;7.90;98.20;;;;;;5034343;28;20488;-71
2022/02/06 08:39:38;;;;;;;1.57;1.20;;;7.90;98.20;;;;;;5034794;28;20625;-71
2022/02/06 08:42:09;;;;;;;1.60;1.30;;;8.00;98.20;;;;;;5028982;28;20484;-72
2022/02/06 08:44:38;;;;;;;1.60;1.27;;;8.00;98.20;;;;;;5034741;28;20478;-72
2022/02/06 08:47:09;;;;;;;1.60;1.20;;;8.00;98.20;;;;;;5027379;28;20485;-71
2022/02/06 08:49:36;;;;;;;1.60;1.20;;;8.00;98.20;;;;;;5031321;28;20466;-72
2022/02/06 08:52:03;;;;;;;1.60;1.20;;;8.00;98.20;;;;;;5018610;28;20501;-71
2022/02/06 08:54:33;;;;;;;1.60;1.20;;;8.00;98.20;;;;;;5028793;28;20471;-72
2022/02/06 08:57:02;;;;;;;1.60;1.20;;;8.00;98.20;;;;;;5018261;28;20491;-71
2022/02/06 08:59:30;;;;;;;1.60;1.20;;;8.00;98.20;;;;;;5020888;28;20459;-72
2022/02/06 09:01:58;;;;;;;1.60;1.10;;;8.00;98.20;;;;;;5012754;28;20501;-71
2022/02/06 09:04:27;;;;;;;1.53;1.13;;;8.00;98.20;;;;;;5030945;28;20501;-71
2022/02/06 09:06:57;;;;;;;1.60;1.20;;;8.00;98.20;;;;;;5016909;28;20503;-72
2022/02/06 09:09:24;;;;;;;1.57;1.20;;;8.10;98.20;;;;;;5026307;28;20995;-71
2022/02/06 09:11:52;;;;;;;1.60;1.23;;;8.10;98.20;;;;;;5023663;28;20674;-71
2022/02/06 09:14:19;;;;;;;1.60;1.20;;;8.10;98.20;;;;;;5034571;28;20555;-71
2022/02/06 09:16:46;;;;;;;1.60;1.30;;;8.10;98.20;;;;;;5022981;28;20478;-71
2022/02/06 09:19:13;;;;;;;1.60;1.20;;;8.10;98.20;;;;;;5031128;28;20464;-72
2022/02/06 09:21:42;;;;;;;1.60;1.30;;;8.10;98.20;;;;;;5014129;28;20565;-71
2022/02/06 09:24:09;;;;;;;1.60;1.23;;;8.10;98.20;;;;;;5036393;28;20455;-71
2022/02/06 09:26:37;;;;;;;1.60;1.30;;;8.10;98.20;;;;;;5021082;28;20496;-71
2022/02/06 09:29:05;;;;;;;1.60;1.20;;;8.10;98.20;;;;;;5035252;28;20467;-71
2022/02/06 09:31:32;;;;;;;1.60;1.20;;;8.00;98.20;;;;;;5021451;28;20493;-71
2022/02/06 09:36:25;;;;;;;1.60;1.20;;;8.00;98.20;;;;;;5022841;28;20485;-71
2022/02/06 09:38:53;;;;;;;1.60;1.30;;;8.00;98.20;;;;;;5041313;28;20552;-71
2022/02/06 09:41:21;;;;;;;1.60;1.20;;;8.00;98.20;;;;;;5020821;28;20492;-71
2022/02/06 09:43:48;;;;;;;1.60;1.30;;;8.00;98.20;;;;;;5038629;28;20513;-71
2022/02/06 09:46:16;;;;;;;7.43;2.70;;;8.00;98.20;;;;;;5018396;28;20507;-71
2022/02/06 09:48:44;;;;;;;1.57;1.20;;;8.10;98.20;;;;;;5033409;28;20463;-71
2022/02/06 09:51:12;;;;;;;3.90;3.50;;;8.10;98.20;;;;;;5018266;28;20544;-71
2022/02/06 09:53:39;;;;;;;1.60;1.37;;;8.10;98.20;;;;;;5032926;28;20863;-71
2022/02/06 09:56:12;;;;;;;1.60;1.10;;;8.10;98.20;;;;;;5020286;28;20483;-71
2022/02/06 09:59:03;;;;;;;1.60;1.20;;;8.10;98.20;;;;;;5038831;28;20462;-70
2022/02/06 10:01:34;;;;;;;1.60;1.30;;;8.10;98.20;;;;;;5020938;28;20490;-71
2022/02/06 10:04:07;;;;;;;1.60;1.30;;;8.10;98.20;;;;;;5036191;28;20475;-71
2022/02/06 10:06:42;;;;;;;1.60;1.30;;;8.10;98.20;;;;;;5020353;28;20475;-70
2022/02/06 10:09:11;;;;;;;1.60;1.20;;;8.10;98.20;;;;;;5033345;28;20985;-71
2022/02/06 10:11:46;;;;;;;1.60;1.20;;;8.10;98.20;;;;;;5025041;28;20490;-70
2022/02/06 10:14:13;;;;;;;1.60;1.20;;;8.10;98.20;;;;;;5035073;28;20839;-71
2022/02/06 10:16:41;;;;;;;1.60;1.20;;;8.10;98.20;;;;;;5013987;28;20522;-69
2022/02/06 10:19:09;;;;;;;1.60;1.23;;;8.00;98.20;;;;;;5023747;28;20557;-69
2022/02/06 10:21:36;;;;;;;1.60;1.27;;;8.00;98.20;;;;;;5022879;28;21014;-69
2022/02/06 10:24:10;;;;;;;1.60;1.40;;;8.00;98.20;;;;;;5038807;28;20467;-70
2022/02/06 10:26:41;;;;;;;1.60;1.27;;;8.00;98.20;;;;;;5021097;28;20488;-70
2022/02/06 10:31:55;;;;;;;1.60;1.30;;;8.00;98.20;;;;;;5020188;28;20481;-70
2022/02/06 10:34:24;;;;;;;1.60;1.30;;;8.00;98.20;;;;;;5033371;28;20467;-70
2022/02/06 10:36:52;;;;;;;1.60;1.27;;;8.00;98.20;;;;;;5025524;28;20544;-70
2022/02/06 10:39:24;;;;;;;1.60;1.20;;;8.00;98.20;;;;;;5034207;28;20459;-70
2022/02/06 10:41:52;;;;;;;1.60;1.20;;;8.00;98.20;;;;;;5021999;28;20489;-70
2022/02/06 10:44:29;;;;;;;1.60;1.23;;;8.00;98.20;;;;;;5027877;28;20894;-70
2022/02/06 10:46:58;;;;;;;1.60;1.20;;;8.00;98.20;;;;;;5020045;28;20607;-70
2022/02/06 10:49:27;;;;;;;1.60;1.20;;;8.00;98.20;;;;;;5029419;28;20463;-70
2022/02/06 10:51:59;;;;;;;1.60;1.40;;;7.90;98.20;;;;;;5021474;28;20635;-70
2022/02/06 10:54:33;;;;;;;1.60;1.30;;;7.90;98.20;;;;;;5031064;28;21741;-71
2022/02/06 10:57:06;;;;;;;1.60;1.30;;;7.90;98.20;;;;;;5026418;28;20798;-70
2022/02/06 10:59:49;;;;;;;1.60;1.33;;;7.90;98.20;;;;;;5023418;28;20957;-70
2022/02/06 11:02:22;;;;;;;1.57;1.20;;;7.90;98.20;;;;;;5025424;28;20470;-70
2022/02/06 11:05:08;;;;;;;1.60;1.30;;;7.90;98.20;;;;;;5028860;28;20481;-70
2022/02/06 11:07:35;;;;;;;1.60;1.20;;;7.90;98.20;;;;;;5028692;28;20899;-70
2022/02/06 11:10:11;;;;;;;1.60;1.20;;;7.90;98.20;;;;;;5027484;28;20474;-71
2022/02/06 11:12:40;;;;;;;1.60;1.20;;;7.90;98.20;;;;;;5023355;28;20492;-71
2022/02/06 11:15:25;;;;;;;1.60;1.27;;;7.90;98.20;;;;;;5025783;28;20463;-71
2022/02/06 11:18:07;;;;;;;1.60;1.30;;;7.90;98.20;;;;;;5020127;28;20855;-71
2022/02/06 11:20:35;;;;;;;1.60;1.20;;;7.90;98.20;;;;;;5023961;28;20467;-71
2022/02/06 11:23:03;;;;;;;1.60;1.40;;;7.90;98.20;;;;;;5021539;28;20486;-70
2022/02/06 11:25:48;;;;;;;1.60;1.40;;;7.90;98.20;;;;;;5026072;28;20483;-71
2022/02/06 11:28:16;;;;;;;1.60;1.40;;;7.90;98.20;;;;;;5012291;28;20505;-72
2022/02/06 11:30:44;;;;;;;1.60;1.20;;;7.90;98.20;;;;;;5021735;28;20471;-72
2022/02/06 11:33:11;;;;;;;1.60;1.20;;;7.90;98.20;;;;;;5021889;28;20489;-71
2022/02/06 11:35:40;;;;;;;1.60;1.20;;;7.90;98.20;;;;;;5024209;28;20549;-72
2022/02/06 11:44:21;;;;;;;1.60;1.17;;;7.90;98.20;;;;;;5031023;28;20460;-71
2022/02/06 11:46:59;;;;;;;1.60;1.40;;;7.80;98.20;;;;;;5020706;28;20493;-71
2022/02/06 11:49:26;;;;;;;1.60;1.20;;;7.80;98.20;;;;;;5029957;28;20465;-73
2022/02/06 11:51:56;;;;;;;1.60;1.30;;;7.90;98.20;;;;;;5022447;28;20474;-71
2022/02/06 11:54:28;;;;;;;1.60;1.20;;;7.90;98.20;;;;;;5034398;28;20463;-71
2022/02/06 11:57:19;;;;;;;1.60;1.30;;;7.90;98.20;;;;;;5019004;28;20581;-71
2022/02/06 12:00:20;;;;;;;1.60;1.20;;;7.90;98.20;;;;;;5028454;28;20463;-72
2022/02/06 12:02:50;;;;;;;1.60;1.30;;;7.90;98.20;;;;;;5020628;28;20482;-71
2022/02/06 12:05:23;;;;;;;1.60;1.20;;;7.90;98.20;;;;;;5022098;28;20495;-72
2022/02/06 12:08:10;;;;;;;1.60;1.20;;;7.90;98.20;;;;;;5022952;28;21076;-72
2022/02/06 12:11:16;;;;;;;1.60;1.40;;;7.90;98.20;;;;;;5021479;28;20463;-73
2022/02/06 12:13:45;;;;;;;1.60;1.30;;;8.00;98.20;;;;;;5012235;28;20556;-73
2022/02/06 12:16:26;;;;;;;1.60;1.23;;;8.00;98.20;;;;;;5015256;28;20477;-72
2022/02/06 12:18:55;;;;;;;1.60;1.20;;;8.00;98.20;;;;;;5031896;28;20455;-73
2022/02/06 12:21:24;;;;;;;1.60;1.30;;;8.00;98.20;;;;;;5015728;28;20488;-70
2022/02/06 12:23:54;;;;;;;1.60;1.30;;;8.00;98.20;;;;;;5033190;28;20461;-71
2022/02/06 12:26:46;;;;;;;1.60;1.20;;;8.10;98.20;;;;;;5015854;28;20484;-74
2022/02/06 12:29:20;;;;;;;1.60;1.20;;;8.10;98.20;;;;;;5022323;28;20584;-74
2022/02/06 12:31:53;;;;;;;1.60;1.20;;;8.10;98.20;;;;;;5015583;28;21042;-71
2022/02/06 12:37:31;;;;;;;1.60;1.20;;;8.20;98.20;;;;;;5027325;28;20569;-72
2022/02/06 12:40:00;;;;;;;1.60;1.30;;;8.20;98.20;;;;;;5023785;28;20562;-71
2022/02/06 12:42:32;;;;;;;1.60;1.10;;;8.30;98.20;;;;;;5023842;28;20478;-71
2022/02/06 12:45:01;;;;;;;1.60;1.20;;;8.30;98.20;;;;;;5024352;28;20463;-72
2022/02/06 12:47:29;;;;;;;1.60;1.30;;;8.40;98.20;;;;;;5016347;28;20475;-71
2022/02/06 12:49:59;;;;;;;1.60;1.20;;;8.40;98.20;;;;;;5022289;28;20475;-73
2022/02/06 12:52:26;;;;;;;1.60;1.23;;;8.50;98.20;;;;;;5023427;28;20789;-73
2022/02/06 12:54:53;;;;;;;1.60;1.20;;;8.60;98.20;;;;;;5022658;28;20478;-72
2022/02/06 12:57:20;;;;;;;1.60;1.20;;;8.60;98.20;;;;;;5022650;28;20910;-72
2022/02/06 12:59:50;;;;;;;1.60;1.20;;;8.70;98.20;;;;;;5023612;28;20828;-71
2022/02/06 13:02:34;;;;;;;1.60;1.20;;;8.70;98.20;;;;;;5013821;28;20478;-71
2022/02/06 13:05:12;;;;;;;1.60;1.20;;;8.70;98.20;;;;;;5020539;28;20459;-71
2022/02/06 13:07:44;;;;;;;1.60;1.40;;;8.80;98.20;;;;;;5019141;28;20484;-71
2022/02/06 13:10:11;;;;;;;1.60;1.20;;;8.80;98.20;;;;;;5013884;28;20467;-71
2022/02/06 13:12:47;;;;;;;1.60;1.20;;;8.90;98.20;;;;;;5016590;28;20474;-71
2022/02/06 13:26:41;;;;;;;1.60;1.10;;;9.00;98.20;;;;;;5009181;28;21054;-72
2022/02/06 13:29:22;;;;;;;1.60;1.20;;;9.00;98.20;;;;;;5025801;28;20464;-72
2022/02/06 13:32:07;;;;;;;1.60;1.20;;;8.70;98.20;;;;;;5021170;28;20580;-72
2022/02/06 13:34:48;;;;;;;1.60;1.20;;;8.50;98.20;;;;;;5028438;28;20467;-73
2022/02/06 13:37:25;;;;;;;1.60;1.20;;;8.20;98.20;;;;;;5025903;28;20872;-70
2022/02/06 13:39:55;;;;;;;1.60;1.20;;;8.00;98.20;;;;;;5027377;28;20466;-73
2022/02/06 13:42:30;;;;;;;1.60;1.30;;;7.90;98.20;;;;;;5018201;28;20488;-71
2022/02/06 13:45:09;;;;;;;1.60;1.20;;;7.70;98.20;;;;;;5022811;28;20466;-72
2022/02/06 13:47:37;;;;;;;1.60;1.20;;;7.60;98.20;;;;;;5018065;28;20510;-73
2022/02/06 13:50:08;;;;;;;1.60;1.20;;;7.50;98.20;;;;;;5024922;28;20780;-74
2022/02/06 13:52:42;;;;;;;1.60;1.20;;;7.50;98.20;;;;;;5026505;28;20573;-72
2022/02/06 13:55:11;;;;;;;2.70;2.50;;;7.40;98.20;;;;;;5022848;28;20478;-72
2022/02/06 13:57:38;;;;;;;2.30;2.10;;;7.40;98.20;;;;;;5027196;28;20929;-73
2022/02/06 14:00:10;;;;;;;1.60;1.20;;;7.30;98.20;;;;;;5023597;28;20463;-72
2022/02/06 14:02:37;;;;;;;1.60;1.20;;;7.30;98.20;;;;;;5024436;28;20489;-71
2022/02/06 14:05:07;;;;;;;1.60;1.20;;;7.30;98.20;;;;;;5024335;28;20495;-71
2022/02/06 14:07:36;;;;;;;1.60;1.30;;;7.30;98.20;;;;;;5024351;28;21228;-72
2022/02/06 14:10:08;;;;;;;1.60;1.20;;;7.30;98.20;;;;;;5023316;28;20467;-71
2022/02/06 14:12:57;;;;;;;1.70;1.60;;;7.30;98.20;;;;;;5019047;28;20486;-71
2022/02/06 14:15:26;;;;;;;1.60;1.20;;;7.30;98.20;;;;;;5020152;28;20498;-71
2022/02/06 14:17:56;;;;;;;2.00;1.57;;;7.30;98.20;;;;;;5023659;28;21010;-70
2022/02/06 14:20:26;;;;;;;1.60;1.20;;;7.30;98.20;;;;;;5023935;28;20520;-72
2022/02/06 14:22:57;;;;;;;1.60;1.20;;;7.30;98.20;;;;;;5022626;28;20597;-71
2022/02/06 14:25:27;;;;;;;1.60;1.27;;;7.30;98.20;;;;;;5021575;28;20872;-72
2022/02/06 14:27:54;;;;;;;1.60;1.20;;;7.30;98.20;;;;;;5018196;28;20693;-71
2022/02/06 14:30:24;;;;;;;1.60;1.20;;;7.30;98.20;;;;;;5022474;28;20463;-72
2022/02/06 14:33:04;;;;;;;1.60;1.20;;;7.30;98.20;;;;;;5017750;28;20555;-71
2022/02/06 14:35:51;;;;;;;1.60;1.30;;;7.30;98.20;;;;;;5024199;28;20503;-71
2022/02/06 14:38:29;;;;;;;1.60;1.40;;;7.30;98.20;;;;;;5013040;28;21009;-71
2022/02/06 14:41:19;;;;;;;1.60;1.30;;;7.30;98.20;;;;;;5014452;28;20466;-72
2022/02/06 14:43:53;;;;;;;1.60;1.30;;;7.30;98.20;;;;;;5034484;28;20499;-72
2022/02/06 14:46:20;;;;;;;1.60;1.30;;;7.40;98.20;;;;;;5016797;28;20481;-72
2022/02/06 14:48:48;;;;;;;1.60;1.23;;;7.30;98.20;;;;;;5035544;28;20470;-71
2022/02/06 14:51:16;;;;;;;1.60;1.30;;;7.30;98.20;;;;;;5014335;28;20485;-72
2022/02/06 14:53:45;;;;;;;1.60;1.23;;;7.40;98.20;;;;;;5028055;28;20963;-72
2022/02/06 14:56:13;;;;;;;1.60;1.20;;;7.40;98.20;;;;;;5014232;28;21207;-71
2022/02/06 14:58:41;;;;;;;1.60;1.20;;;7.40;98.20;;;;;;5030012;28;20845;-72
2022/02/06 15:01:10;;;;;;;1.60;1.30;;;7.40;98.20;;;;;;5015692;28;20765;-71